createdAt,value
2019-02-06T00:01:06.320Z,6.30
2019-02-06T00:02:40.941Z,6.40
2019-02-06T00:04:15.671Z,6.30
2019-02-06T00:05:50.609Z,6.20
2019-02-06T00:07:25.228Z,6.30
2019-02-06T00:08:59.840Z,6.30
2019-02-06T00:10:34.466Z,6.20
2019-02-06T00:12:09.182Z,6.30
2019-02-06T00:13:44.104Z,6.30
2019-02-06T00:15:18.768Z,6.30
2019-02-06T00:16:53.350Z,6.40
2019-02-06T00:18:28.430Z,6.30
2019-02-06T00:20:03.039Z,6.30
2019-02-06T00:21:37.659Z,6.30
2019-02-06T00:23:12.293Z,6.30
2019-02-06T00:24:47.212Z,6.20
2019-02-06T00:26:21.836Z,6.30
2019-02-06T00:27:56.461Z,6.20
2019-02-06T00:29:31.001Z,6.30
2019-02-06T00:31:05.728Z,6.30
2019-02-06T00:32:40.609Z,6.30
2019-02-06T00:34:15.225Z,6.20
2019-02-06T00:35:49.786Z,6.30
2019-02-06T00:37:24.440Z,6.30
2019-02-06T00:38:59.049Z,6.10
2019-02-06T00:40:33.609Z,6.10
2019-02-06T00:42:08.232Z,6.10
2019-02-06T00:43:43.162Z,5.90
2019-02-06T00:45:17.825Z,5.90
2019-02-06T00:46:52.419Z,5.70
2019-02-06T00:48:28.119Z,5.60
2019-02-06T00:50:02.733Z,5.70
2019-02-06T00:51:37.362Z,5.70
2019-02-06T00:53:12.120Z,5.50
2019-02-06T00:54:46.737Z,5.60
2019-02-06T00:56:21.667Z,5.40
2019-02-06T00:57:56.278Z,5.40
2019-02-06T00:59:30.922Z,5.30
2019-02-06T01:01:05.941Z,5.20
2019-02-06T01:02:40.562Z,5.20
2019-02-06T01:04:15.228Z,5.30
2019-02-06T01:05:49.842Z,5.10
2019-02-06T01:07:24.556Z,5.10
2019-02-06T01:08:59.558Z,5.00
2019-02-06T01:10:34.103Z,4.90
2019-02-06T01:12:08.758Z,5.00
2019-02-06T01:13:43.338Z,4.90
2019-02-06T01:15:17.973Z,4.90
2019-02-06T01:16:52.613Z,4.90
2019-02-06T01:18:27.150Z,4.90
2019-02-06T01:20:01.780Z,4.80
2019-02-06T01:21:36.389Z,4.80
2019-02-06T01:23:11.008Z,4.70
2019-02-06T01:24:45.624Z,4.70
2019-02-06T01:26:20.445Z,4.70
2019-02-06T01:27:55.097Z,4.60
2019-02-06T01:29:30.053Z,4.50
2019-02-06T01:31:09.189Z,4.60
2019-02-06T01:32:43.809Z,4.60
2019-02-06T01:34:18.631Z,4.60
2019-02-06T01:35:53.306Z,4.60
2019-02-06T01:37:27.926Z,4.50
2019-02-06T01:39:04.192Z,4.50
2019-02-06T01:40:38.725Z,4.40
2019-02-06T01:42:13.337Z,4.50
2019-02-06T01:43:47.951Z,4.50
2019-02-06T01:45:22.780Z,4.50
2019-02-06T01:46:57.372Z,4.40
2019-02-06T01:48:31.989Z,4.40
2019-02-06T01:50:09.909Z,4.40
2019-02-06T01:51:44.553Z,4.30
2019-02-06T01:53:19.161Z,4.40
2019-02-06T01:54:53.862Z,4.40
2019-02-06T01:56:29.526Z,4.40
2019-02-06T01:58:04.141Z,4.30
2019-02-06T01:59:38.754Z,4.30
2019-02-06T02:01:13.377Z,4.10
2019-02-06T02:02:48.049Z,4.10
2019-02-06T02:04:23.069Z,4.10
2019-02-06T02:06:02.514Z,3.90
2019-02-06T02:07:33.956Z,4.10
2019-02-06T02:09:13.349Z,4.00
2019-02-06T02:10:48.049Z,4.00
2019-02-06T02:12:23.231Z,3.90
2019-02-06T02:13:57.844Z,3.90
2019-02-06T02:15:33.443Z,3.80
2019-02-06T02:17:08.043Z,3.90
2019-02-06T02:18:42.666Z,3.80
2019-02-06T02:20:19.273Z,3.90
2019-02-06T02:21:53.897Z,3.80
2019-02-06T02:23:28.593Z,3.70
2019-02-06T02:25:03.513Z,3.70
2019-02-06T02:26:38.137Z,3.80
2019-02-06T02:28:12.729Z,3.80
2019-02-06T02:29:47.590Z,3.80
2019-02-06T02:31:22.273Z,3.70
2019-02-06T02:32:57.145Z,3.70
2019-02-06T02:34:31.679Z,3.70
2019-02-06T02:36:15.357Z,3.70
2019-02-06T02:37:42.570Z,3.80
2019-02-06T02:39:17.178Z,3.70
2019-02-06T02:40:51.822Z,3.70
2019-02-06T02:42:26.426Z,3.50
2019-02-06T02:44:02.422Z,3.70
2019-02-06T02:45:39.857Z,3.70
2019-02-06T02:47:14.773Z,3.60
2019-02-06T02:48:49.446Z,3.70
2019-02-06T02:50:24.068Z,3.60
2019-02-06T02:51:58.713Z,3.60
2019-02-06T02:53:33.318Z,3.60
2019-02-06T02:55:08.349Z,3.60
2019-02-06T02:56:43.978Z,3.60
2019-02-06T02:58:19.672Z,3.70
2019-02-06T02:59:54.293Z,3.70
2019-02-06T03:01:46.906Z,3.70
2019-02-06T03:03:52.703Z,3.80
2019-02-06T03:05:29.893Z,3.80
2019-02-06T03:07:04.586Z,3.80
2019-02-06T03:08:39.210Z,3.60
2019-02-06T03:10:13.845Z,3.70
2019-02-06T03:11:48.526Z,3.80
2019-02-06T03:13:23.174Z,3.80
2019-02-06T03:14:57.790Z,3.70
2019-02-06T03:16:33.692Z,3.60
2019-02-06T03:18:08.289Z,3.70
2019-02-06T03:19:42.883Z,3.70
2019-02-06T03:21:17.486Z,3.80
2019-02-06T03:22:52.041Z,3.80
2019-02-06T03:24:26.585Z,3.80
2019-02-06T03:26:01.392Z,3.80
2019-02-06T03:27:36.018Z,3.70
2019-02-06T03:29:10.661Z,3.80
2019-02-06T03:30:45.283Z,3.50
2019-02-06T03:32:19.883Z,3.60
2019-02-06T03:33:54.486Z,3.50
2019-02-06T03:35:29.046Z,3.50
2019-02-06T03:37:03.666Z,3.50
2019-02-06T03:38:38.586Z,3.40
2019-02-06T03:40:13.183Z,3.50
2019-02-06T03:41:47.818Z,3.40
2019-02-06T03:43:22.437Z,3.40
2019-02-06T03:44:57.035Z,3.50
2019-02-06T03:46:33.281Z,3.50
2019-02-06T03:48:07.825Z,3.50
2019-02-06T03:49:42.823Z,3.40
2019-02-06T03:51:17.853Z,3.40
2019-02-06T03:52:52.486Z,3.60
2019-02-06T03:54:27.113Z,3.50
2019-02-06T03:56:01.735Z,3.50
2019-02-06T03:57:36.270Z,3.40
2019-02-06T03:59:10.890Z,3.30
2019-02-06T04:00:45.509Z,3.40
2019-02-06T04:02:20.097Z,3.30
2019-02-06T04:03:55.106Z,3.30
2019-02-06T04:05:30.691Z,3.40
2019-02-06T04:07:05.385Z,3.40
2019-02-06T04:08:39.981Z,3.30
2019-02-06T04:10:14.649Z,3.30
2019-02-06T04:11:49.278Z,3.20
2019-02-06T04:13:23.919Z,3.30
2019-02-06T04:14:58.521Z,3.40
2019-02-06T04:16:33.070Z,3.40
2019-02-06T04:18:07.685Z,3.30
2019-02-06T04:19:42.356Z,3.30
2019-02-06T04:21:17.021Z,3.30
2019-02-06T04:22:51.662Z,3.30
2019-02-06T04:24:26.261Z,3.20
2019-02-06T04:26:00.887Z,3.10
2019-02-06T04:27:35.526Z,3.20
2019-02-06T04:29:10.168Z,3.10
2019-02-06T04:30:44.766Z,3.20
2019-02-06T04:32:19.377Z,3.30
2019-02-06T04:33:54.199Z,3.30
2019-02-06T04:35:28.872Z,3.10
2019-02-06T04:37:06.799Z,3.20
2019-02-06T04:38:39.708Z,3.30
2019-02-06T04:40:16.486Z,3.20
2019-02-06T04:41:51.032Z,3.30
2019-02-06T04:43:25.647Z,3.20
2019-02-06T04:45:00.345Z,3.20
2019-02-06T04:46:36.015Z,3.20
2019-02-06T04:48:10.613Z,3.20
2019-02-06T04:49:45.153Z,3.10
2019-02-06T04:51:19.790Z,3.10
2019-02-06T04:52:54.489Z,3.20
2019-02-06T04:54:29.069Z,3.40
2019-02-06T04:56:03.783Z,3.30
2019-02-06T04:57:38.400Z,3.40
2019-02-06T04:59:13.321Z,3.50
2019-02-06T05:00:47.948Z,3.40
2019-02-06T05:02:22.547Z,3.40
2019-02-06T05:03:57.190Z,3.30
2019-02-06T05:05:31.710Z,3.30
2019-02-06T05:07:18.297Z,3.50
2019-02-06T05:08:42.512Z,3.50
2019-02-06T05:10:17.072Z,3.40
2019-02-06T05:11:52.080Z,3.50
2019-02-06T05:13:26.685Z,3.50
2019-02-06T05:15:01.302Z,3.60
2019-02-06T05:16:35.845Z,3.70
2019-02-06T05:18:10.485Z,3.60
2019-02-06T05:19:45.147Z,3.60
2019-02-06T05:21:19.742Z,3.50
2019-02-06T05:22:54.319Z,3.50
2019-02-06T05:24:29.258Z,3.50
2019-02-06T05:26:03.884Z,3.40
2019-02-06T05:27:38.474Z,3.40
2019-02-06T05:29:13.109Z,3.40
2019-02-06T05:30:47.734Z,3.50
2019-02-06T05:32:22.311Z,3.60
2019-02-06T05:33:56.909Z,3.70
2019-02-06T05:35:31.544Z,3.70
2019-02-06T05:37:06.242Z,3.60
2019-02-06T05:38:40.939Z,3.60
2019-02-06T05:40:15.607Z,3.60
2019-02-06T05:41:50.685Z,3.50
2019-02-06T05:43:25.298Z,3.60
2019-02-06T05:44:59.845Z,3.50
2019-02-06T05:46:34.466Z,3.40
2019-02-06T05:48:09.072Z,3.50
2019-02-06T05:49:43.698Z,3.50
2019-02-06T05:51:19.309Z,3.50
2019-02-06T05:52:53.909Z,3.60
2019-02-06T05:54:28.427Z,3.60
2019-02-06T05:56:03.106Z,3.50
2019-02-06T05:57:37.755Z,3.50
2019-02-06T05:59:12.557Z,3.50
2019-02-06T06:00:48.823Z,3.60
2019-02-06T06:02:23.450Z,3.60
2019-02-06T06:03:58.409Z,3.60
2019-02-06T06:05:33.053Z,3.60
2019-02-06T06:07:07.672Z,3.60
2019-02-06T06:08:42.302Z,3.60
2019-02-06T06:10:24.396Z,3.60
2019-02-06T06:11:58.992Z,3.80
2019-02-06T06:13:33.636Z,3.80
2019-02-06T06:15:09.239Z,3.90
2019-02-06T06:16:43.844Z,3.70
2019-02-06T06:18:18.427Z,3.80
2019-02-06T06:19:53.018Z,3.90
2019-02-06T06:21:27.914Z,3.80
2019-02-06T06:23:02.511Z,3.90
2019-02-06T06:24:37.348Z,3.80
2019-02-06T06:26:12.001Z,4.00
2019-02-06T06:27:46.705Z,4.00
2019-02-06T06:29:22.308Z,3.90
2019-02-06T06:30:56.875Z,4.10
2019-02-06T06:32:32.119Z,4.00
2019-02-06T06:34:06.947Z,4.00
2019-02-06T06:35:41.635Z,4.00
2019-02-06T06:37:16.546Z,4.10
2019-02-06T06:38:51.163Z,4.00
2019-02-06T06:40:25.901Z,4.10
2019-02-06T06:42:00.528Z,4.10
2019-02-06T06:43:35.134Z,4.10
2019-02-06T06:45:11.696Z,4.00
2019-02-06T06:46:46.301Z,4.10
2019-02-06T06:48:20.921Z,4.10
2019-02-06T06:49:55.931Z,4.00
2019-02-06T06:51:30.494Z,4.00
2019-02-06T06:53:05.142Z,4.10
2019-02-06T06:54:39.828Z,4.20
2019-02-06T06:56:14.462Z,4.10
2019-02-06T06:57:49.075Z,4.10
2019-02-06T06:59:24.811Z,4.10
2019-02-06T07:00:59.469Z,4.00
2019-02-06T07:02:34.475Z,4.00
2019-02-06T07:04:09.079Z,4.10
2019-02-06T07:05:43.746Z,4.10
2019-02-06T07:07:18.707Z,4.10
2019-02-06T07:08:53.238Z,4.10
2019-02-06T07:10:27.843Z,4.10
2019-02-06T07:12:02.500Z,4.10
2019-02-06T07:13:38.162Z,4.00
2019-02-06T07:15:15.645Z,3.90
2019-02-06T07:16:50.265Z,3.90
2019-02-06T07:18:24.881Z,4.00
2019-02-06T07:20:00.550Z,3.90
2019-02-06T07:21:35.222Z,3.90
2019-02-06T07:23:13.002Z,4.00
2019-02-06T07:24:47.619Z,4.00
2019-02-06T07:26:22.408Z,3.90
2019-02-06T07:27:57.016Z,4.00
2019-02-06T07:29:31.643Z,4.00
2019-02-06T07:31:06.288Z,4.20
2019-02-06T07:32:40.898Z,4.00
2019-02-06T07:34:15.510Z,4.10
2019-02-06T07:35:50.059Z,4.20
2019-02-06T07:37:24.683Z,4.30
2019-02-06T07:38:59.316Z,4.20
2019-02-06T07:40:34.374Z,4.30
2019-02-06T07:42:09.021Z,4.20
2019-02-06T07:43:43.669Z,4.20
2019-02-06T07:45:18.274Z,4.30
2019-02-06T07:46:52.819Z,4.40
2019-02-06T07:48:27.457Z,4.50
2019-02-06T07:50:03.990Z,4.50
2019-02-06T07:51:38.593Z,4.60
2019-02-06T07:53:13.569Z,4.80
2019-02-06T07:54:48.234Z,4.80
2019-02-06T07:56:22.800Z,4.60
2019-02-06T07:57:57.424Z,4.80
2019-02-06T07:59:32.011Z,4.90
2019-02-06T08:01:06.669Z,4.90
2019-02-06T08:02:41.283Z,5.00
2019-02-06T08:04:15.898Z,5.00
2019-02-06T08:05:50.812Z,5.00
2019-02-06T08:07:25.364Z,5.00
2019-02-06T08:08:59.974Z,5.10
2019-02-06T08:10:34.985Z,5.30
2019-02-06T08:12:09.597Z,5.30
2019-02-06T08:13:44.238Z,5.20
2019-02-06T08:15:18.938Z,5.20
2019-02-06T08:16:53.537Z,5.40
2019-02-06T08:18:28.091Z,5.50
2019-02-06T08:20:02.747Z,5.30
2019-02-06T08:21:37.352Z,5.30
2019-02-06T08:23:11.993Z,5.30
2019-02-06T08:24:46.609Z,5.40
2019-02-06T08:26:21.158Z,5.50
2019-02-06T08:27:55.798Z,5.60
2019-02-06T08:29:30.414Z,5.40
2019-02-06T08:31:05.069Z,5.40
2019-02-06T08:32:39.679Z,5.60
2019-02-06T08:34:14.313Z,5.70
2019-02-06T08:35:49.120Z,5.40
2019-02-06T08:37:23.765Z,5.50
2019-02-06T08:38:58.531Z,5.50
2019-02-06T08:40:33.148Z,5.50
2019-02-06T08:42:07.769Z,5.50
2019-02-06T08:43:42.293Z,5.60
2019-02-06T08:45:16.937Z,5.50
2019-02-06T08:46:51.546Z,5.60
2019-02-06T08:48:26.365Z,5.70
2019-02-06T08:50:00.913Z,5.80
2019-02-06T08:51:35.573Z,5.50
2019-02-06T08:53:10.233Z,5.60
2019-02-06T08:54:45.737Z,5.80
2019-02-06T08:56:20.369Z,5.80
2019-02-06T08:57:55.014Z,6.00
2019-02-06T08:59:29.678Z,5.90
2019-02-06T09:01:04.550Z,6.10
2019-02-06T09:02:39.158Z,6.00
2019-02-06T09:04:13.780Z,6.00
2019-02-06T09:05:48.389Z,6.10
2019-02-06T09:07:23.006Z,6.00
2019-02-06T09:09:00.678Z,5.90
2019-02-06T09:10:36.954Z,6.00
2019-02-06T09:12:12.448Z,6.20
2019-02-06T09:13:47.554Z,6.30
2019-02-06T09:15:22.097Z,6.30
2019-02-06T09:16:56.638Z,6.30
2019-02-06T09:18:31.254Z,6.40
2019-02-06T09:20:08.380Z,6.40
2019-02-06T09:21:43.022Z,6.50
2019-02-06T09:23:17.677Z,6.40
2019-02-06T09:24:52.409Z,6.60
2019-02-06T09:26:27.786Z,6.60
2019-02-06T09:28:02.439Z,6.70
2019-02-06T09:29:38.045Z,6.70
2019-02-06T09:31:12.614Z,6.40
2019-02-06T09:32:47.255Z,6.40
2019-02-06T09:34:21.858Z,6.40
2019-02-06T09:35:56.474Z,6.40
2019-02-06T09:37:39.064Z,6.60
2019-02-06T09:39:13.697Z,6.50
2019-02-06T09:40:49.498Z,6.50
2019-02-06T09:42:24.378Z,6.60
2019-02-06T09:43:59.022Z,6.60
2019-02-06T09:45:33.549Z,6.80
2019-02-06T09:47:08.494Z,6.80
2019-02-06T09:48:43.098Z,6.90
2019-02-06T09:50:22.846Z,7.00
2019-02-06T09:51:57.393Z,6.80
2019-02-06T09:53:31.934Z,6.80
2019-02-06T09:55:06.815Z,6.90
2019-02-06T09:56:41.378Z,6.80
2019-02-06T09:58:16.225Z,6.70
2019-02-06T09:59:51.380Z,6.90
2019-02-06T10:01:26.033Z,6.80
2019-02-06T10:03:00.649Z,6.80
2019-02-06T10:04:35.212Z,6.80
2019-02-06T10:06:09.835Z,6.80
2019-02-06T10:07:46.203Z,7.00
2019-02-06T10:09:22.936Z,7.10
2019-02-06T10:10:56.891Z,7.20
2019-02-06T10:12:31.845Z,7.30
2019-02-06T10:14:06.434Z,7.30
2019-02-06T10:15:41.061Z,7.30
2019-02-06T10:17:15.677Z,7.40
2019-02-06T10:18:50.334Z,7.50
2019-02-06T10:20:29.933Z,7.60
2019-02-06T10:22:04.618Z,7.70
2019-02-06T10:23:39.297Z,7.80
2019-02-06T10:25:14.133Z,7.90
2019-02-06T10:26:48.683Z,8.10
2019-02-06T10:28:24.251Z,8.10
2019-02-06T10:29:59.156Z,8.00
2019-02-06T10:31:33.794Z,8.20
2019-02-06T10:33:08.431Z,8.10
2019-02-06T10:34:43.381Z,8.10
2019-02-06T10:36:17.926Z,8.20
2019-02-06T10:37:52.777Z,8.30
2019-02-06T10:39:34.247Z,8.30
2019-02-06T10:41:04.689Z,8.30
2019-02-06T10:42:39.462Z,8.40
2019-02-06T10:44:14.111Z,8.30
2019-02-06T10:45:48.835Z,8.20
2019-02-06T10:47:23.516Z,8.10
2019-02-06T10:48:58.223Z,8.20
2019-02-06T10:50:34.958Z,8.10
2019-02-06T10:52:09.630Z,8.10
2019-02-06T10:53:44.417Z,8.30
2019-02-06T10:55:19.151Z,8.20
2019-02-06T10:56:54.742Z,8.30
2019-02-06T10:58:29.356Z,8.20
2019-02-06T11:00:07.357Z,8.20
2019-02-06T11:01:41.986Z,8.30
2019-02-06T11:03:16.625Z,8.20
2019-02-06T11:04:51.168Z,8.30
2019-02-06T11:06:25.826Z,8.40
2019-02-06T11:08:00.433Z,8.40
2019-02-06T11:09:45.769Z,8.40
2019-02-06T11:11:11.261Z,8.50
2019-02-06T11:12:45.930Z,8.40
2019-02-06T11:14:20.539Z,8.40
2019-02-06T11:15:55.179Z,8.40
2019-02-06T11:17:29.786Z,8.60
2019-02-06T11:19:04.389Z,8.60
2019-02-06T11:20:39.113Z,8.60
2019-02-06T11:22:13.812Z,8.50
2019-02-06T11:23:48.448Z,8.60
2019-02-06T11:25:23.066Z,8.70
2019-02-06T11:26:57.698Z,8.70
2019-02-06T11:28:32.444Z,8.70
2019-02-06T11:30:10.414Z,8.80
2019-02-06T11:31:45.077Z,8.90
2019-02-06T11:33:19.718Z,9.00
2019-02-06T11:34:54.318Z,9.10
2019-02-06T11:36:29.237Z,9.10
2019-02-06T11:38:03.869Z,8.90
2019-02-06T11:39:38.505Z,9.00
2019-02-06T11:41:13.124Z,9.10
2019-02-06T11:42:47.754Z,9.30
2019-02-06T11:44:22.317Z,9.30
2019-02-06T11:45:56.961Z,9.30
2019-02-06T11:47:31.594Z,9.20
2019-02-06T11:49:07.069Z,9.20
2019-02-06T11:50:42.925Z,9.30
2019-02-06T11:52:17.604Z,9.20
2019-02-06T11:53:52.213Z,9.20
2019-02-06T11:55:26.867Z,9.10
2019-02-06T11:57:01.505Z,9.00
2019-02-06T11:58:36.181Z,8.90
2019-02-06T12:00:14.442Z,8.90
2019-02-06T12:01:52.221Z,8.70
2019-02-06T12:03:26.862Z,8.80
2019-02-06T12:05:01.404Z,8.90
2019-02-06T12:06:37.402Z,9.00
2019-02-06T12:08:13.029Z,9.00
2019-02-06T12:09:47.565Z,9.10
2019-02-06T12:11:22.189Z,9.00
2019-02-06T12:12:56.809Z,9.00
2019-02-06T12:14:31.641Z,9.10
2019-02-06T12:16:06.258Z,9.10
2019-02-06T12:17:40.902Z,9.00
2019-02-06T12:19:15.493Z,9.00
2019-02-06T12:20:50.124Z,9.00
2019-02-06T12:22:24.749Z,9.00
2019-02-06T12:23:59.382Z,9.20
2019-02-06T12:25:34.628Z,9.20
2019-02-06T12:27:09.541Z,9.30
2019-02-06T12:28:44.157Z,9.40
2019-02-06T12:30:28.374Z,9.50
2019-02-06T12:32:02.909Z,9.50
2019-02-06T12:33:37.439Z,9.60
2019-02-06T12:35:12.065Z,9.60
2019-02-06T12:36:47.030Z,9.60
2019-02-06T12:38:22.583Z,9.60
2019-02-06T12:39:57.360Z,9.60
2019-02-06T12:41:32.001Z,9.70
2019-02-06T12:43:07.044Z,9.70
2019-02-06T12:44:43.158Z,9.80
2019-02-06T12:46:17.697Z,9.80
2019-02-06T12:47:52.326Z,9.90
2019-02-06T12:49:26.960Z,9.80
2019-02-06T12:51:01.585Z,9.70
2019-02-06T12:52:36.200Z,9.70
2019-02-06T12:54:10.841Z,9.60
2019-02-06T12:55:45.449Z,9.60
2019-02-06T12:57:20.830Z,9.60
2019-02-06T12:58:55.466Z,9.70
2019-02-06T13:00:31.606Z,9.60
2019-02-06T13:02:06.329Z,9.40
2019-02-06T13:03:40.949Z,9.50
2019-02-06T13:05:15.494Z,9.60
2019-02-06T13:06:50.113Z,9.50
2019-02-06T13:08:24.778Z,9.50
2019-02-06T13:09:59.418Z,9.40
2019-02-06T13:11:34.142Z,9.50
2019-02-06T13:13:08.761Z,9.60
2019-02-06T13:14:43.501Z,9.60
2019-02-06T13:16:18.128Z,9.50
2019-02-06T13:17:53.013Z,9.60
2019-02-06T13:19:27.638Z,9.70
2019-02-06T13:21:02.306Z,9.70
2019-02-06T13:22:36.881Z,9.70
2019-02-06T13:24:11.524Z,9.70
2019-02-06T13:25:46.106Z,9.70
2019-02-06T13:27:21.075Z,9.60
2019-02-06T13:28:55.683Z,9.60
2019-02-06T13:30:31.925Z,9.60
2019-02-06T13:32:06.523Z,9.60
2019-02-06T13:33:41.149Z,9.60
2019-02-06T13:35:17.618Z,9.50
2019-02-06T13:36:52.181Z,9.60
2019-02-06T13:38:26.796Z,9.70
2019-02-06T13:40:01.695Z,9.70
2019-02-06T13:41:36.312Z,9.70
2019-02-06T13:43:10.934Z,9.70
2019-02-06T13:44:45.468Z,9.70
2019-02-06T13:46:20.076Z,9.70
2019-02-06T13:47:55.079Z,9.80
2019-02-06T13:49:29.673Z,9.80
2019-02-06T13:51:15.588Z,9.70
2019-02-06T13:52:41.454Z,9.80
2019-02-06T13:54:16.063Z,9.80
2019-02-06T13:55:51.853Z,9.90
2019-02-06T13:57:33.473Z,9.90
2019-02-06T13:59:02.740Z,9.80
2019-02-06T14:00:38.299Z,9.80
2019-02-06T14:02:12.970Z,9.90
2019-02-06T14:03:47.873Z,9.90
2019-02-06T14:05:24.103Z,9.90
2019-02-06T14:06:58.710Z,9.90
2019-02-06T14:08:33.294Z,9.80
2019-02-06T14:10:10.229Z,9.80
2019-02-06T14:11:44.834Z,9.80
2019-02-06T14:13:19.747Z,9.70
2019-02-06T14:14:54.351Z,9.70
2019-02-06T14:16:28.963Z,9.70
2019-02-06T14:18:03.612Z,9.70
2019-02-06T14:19:38.210Z,9.70
2019-02-06T14:21:12.814Z,9.70
2019-02-06T14:22:51.133Z,9.70
2019-02-06T14:24:35.176Z,9.70
2019-02-06T14:26:38.469Z,9.70
2019-02-06T14:28:48.466Z,9.70
2019-02-06T14:30:54.272Z,9.60
2019-02-06T14:33:00.958Z,9.60
2019-02-06T14:35:00.279Z,9.50
2019-02-06T14:37:15.295Z,9.60
2019-02-06T14:39:26.373Z,9.60
2019-02-06T14:41:30.314Z,9.60
2019-02-06T14:43:33.194Z,9.70
2019-02-06T14:46:01.451Z,9.70
2019-02-06T14:47:50.617Z,9.70
2019-02-06T14:49:50.502Z,9.70
2019-02-06T14:52:05.341Z,9.70
2019-02-06T14:54:02.199Z,9.70
2019-02-06T14:56:19.166Z,9.80
2019-02-06T14:58:32.321Z,9.80
2019-02-06T15:00:22.456Z,9.80
2019-02-06T15:02:35.574Z,9.80
2019-02-06T15:04:26.877Z,9.80
2019-02-06T15:06:31.846Z,9.60
2019-02-06T15:08:50.041Z,9.60
2019-02-06T15:11:19.155Z,9.60
2019-02-06T15:12:53.016Z,9.40
2019-02-06T15:14:52.117Z,9.40
2019-02-06T15:16:52.125Z,9.40
2019-02-06T15:19:01.604Z,9.30
2019-02-06T15:21:08.877Z,9.40
2019-02-06T15:23:18.458Z,9.30
2019-02-06T15:25:39.494Z,9.50
2019-02-06T15:27:47.752Z,9.40
2019-02-06T15:30:02.426Z,9.40
2019-02-06T15:32:03.794Z,9.40
2019-02-06T15:34:10.661Z,9.40
2019-02-06T15:36:17.514Z,9.40
2019-02-06T15:38:42.795Z,9.30
2019-02-06T15:40:48.129Z,9.20
2019-02-06T15:42:31.706Z,9.20
2019-02-06T15:44:28.862Z,9.20
2019-02-06T15:46:39.816Z,9.20
2019-02-06T15:49:02.069Z,9.30
2019-02-06T15:51:09.138Z,9.10
2019-02-06T15:53:11.915Z,9.20
2019-02-06T15:55:07.693Z,9.10
2019-02-06T15:57:18.546Z,9.10
2019-02-06T15:59:28.378Z,9.10
2019-02-06T16:01:47.677Z,9.00
2019-02-06T16:04:38.125Z,9.10
2019-02-06T16:06:44.342Z,9.10
2019-02-06T16:09:06.370Z,9.00
2019-02-06T16:11:19.297Z,9.00
2019-02-06T16:13:18.622Z,9.00
2019-02-06T16:15:08.966Z,9.00
2019-02-06T16:17:25.169Z,9.10
2019-02-06T16:19:34.912Z,9.10
2019-02-06T16:22:01.914Z,9.10
2019-02-06T16:24:01.561Z,9.10
2019-02-06T16:26:22.751Z,9.00
2019-02-06T16:28:27.684Z,9.00
2019-02-06T16:30:59.765Z,9.00
2019-02-06T16:33:27.817Z,9.00
2019-02-06T16:35:37.002Z,9.00
2019-02-06T16:37:40.217Z,9.10
2019-02-06T16:39:38.721Z,9.00
2019-02-06T16:41:35.272Z,9.00
2019-02-06T16:43:58.213Z,9.00
2019-02-06T16:46:12.998Z,9.10
2019-02-06T16:48:17.074Z,9.10
2019-02-06T16:50:08.886Z,9.00
2019-02-06T16:52:30.586Z,9.10
2019-02-06T16:54:41.025Z,9.00
2019-02-06T16:56:34.298Z,9.00
2019-02-06T16:58:44.046Z,9.10
2019-02-06T17:01:16.326Z,9.00
2019-02-06T17:03:33.820Z,9.00
2019-02-06T17:05:45.038Z,9.00
2019-02-06T17:07:38.103Z,9.00
2019-02-06T17:09:23.095Z,9.00
2019-02-06T17:11:10.872Z,8.90
2019-02-06T17:13:16.509Z,8.90
2019-02-06T17:15:38.490Z,8.90
2019-02-06T17:17:20.027Z,9.00
2019-02-06T17:19:41.633Z,9.00
2019-02-06T17:21:59.891Z,9.00
2019-02-06T17:23:47.818Z,9.00
2019-02-06T17:26:02.969Z,9.10
2019-02-06T17:28:25.039Z,9.00
2019-02-06T17:30:47.289Z,9.00
2019-02-06T17:32:54.517Z,9.00
2019-02-06T17:35:19.537Z,8.90
2019-02-06T17:37:32.599Z,8.90
2019-02-06T17:40:03.626Z,8.90
2019-02-06T17:42:15.341Z,8.90
2019-02-06T17:44:12.945Z,8.90
2019-02-06T17:46:25.519Z,8.90
2019-02-06T17:48:48.083Z,8.90
2019-02-06T17:50:55.272Z,8.80
2019-02-06T17:52:57.054Z,8.80
2019-02-06T17:55:18.920Z,8.80
2019-02-06T17:56:53.521Z,8.80
2019-02-06T17:58:32.057Z,8.80
2019-02-06T18:00:14.413Z,8.80
2019-02-06T18:01:52.436Z,8.80
2019-02-06T18:03:28.842Z,8.80
2019-02-06T18:05:03.477Z,8.80
2019-02-06T18:06:38.109Z,8.70
2019-02-06T18:08:12.749Z,8.80
2019-02-06T18:09:54.537Z,8.80
2019-02-06T18:11:29.142Z,8.80
2019-02-06T18:13:03.788Z,8.80
2019-02-06T18:14:38.454Z,8.80
2019-02-06T18:16:21.097Z,8.80
2019-02-06T18:17:49.420Z,8.80
2019-02-06T18:19:24.044Z,8.80
2019-02-06T18:20:59.089Z,8.70
2019-02-06T18:22:33.733Z,8.80
2019-02-06T18:24:08.389Z,8.80
2019-02-06T18:25:43.469Z,9.00
2019-02-06T18:27:18.122Z,8.90
2019-02-06T18:28:52.794Z,8.90
2019-02-06T18:30:27.667Z,8.80
2019-02-06T18:32:02.301Z,8.80
2019-02-06T18:33:36.947Z,8.70
2019-02-06T18:35:11.565Z,8.80
2019-02-06T18:36:46.178Z,8.80
2019-02-06T18:38:21.112Z,8.70
2019-02-06T18:39:55.986Z,8.80
2019-02-06T18:41:30.599Z,8.80
2019-02-06T18:43:05.309Z,8.90
2019-02-06T18:44:39.931Z,8.80
2019-02-06T18:46:15.622Z,8.80
2019-02-06T18:47:56.694Z,8.70
2019-02-06T18:49:31.333Z,8.70
2019-02-06T18:51:05.983Z,8.70
2019-02-06T18:52:40.645Z,8.80
2019-02-06T18:54:15.273Z,8.80
2019-02-06T18:55:51.430Z,8.80
2019-02-06T18:57:26.117Z,8.80
2019-02-06T18:59:00.765Z,8.80
2019-02-06T19:00:36.193Z,8.80
2019-02-06T19:02:10.904Z,8.80
2019-02-06T19:03:46.294Z,8.80
2019-02-06T19:05:22.270Z,8.80
2019-02-06T19:06:57.205Z,8.80
2019-02-06T19:08:31.840Z,8.70
2019-02-06T19:10:08.670Z,8.50
2019-02-06T19:11:43.313Z,8.50
2019-02-06T19:13:18.925Z,8.60
2019-02-06T19:14:53.537Z,8.70
2019-02-06T19:16:28.141Z,8.60
2019-02-06T19:18:02.990Z,8.50
2019-02-06T19:19:37.588Z,8.30
2019-02-06T19:21:12.207Z,8.30
2019-02-06T19:22:46.824Z,8.30
2019-02-06T19:24:21.449Z,8.40
2019-02-06T19:25:56.117Z,8.30
2019-02-06T19:27:30.737Z,8.30
2019-02-06T19:29:05.566Z,8.20
2019-02-06T19:30:43.612Z,8.30
2019-02-06T19:32:21.333Z,8.30
2019-02-06T19:34:02.674Z,8.30
2019-02-06T19:35:41.457Z,8.30
2019-02-06T19:37:19.377Z,8.20
2019-02-06T19:38:57.230Z,8.10
2019-02-06T19:40:35.507Z,8.10
2019-02-06T19:42:14.013Z,8.20
2019-02-06T19:43:48.882Z,8.10
2019-02-06T19:45:23.510Z,8.10
2019-02-06T19:46:58.770Z,8.20
2019-02-06T19:48:34.105Z,8.20
2019-02-06T19:50:19.341Z,8.20
2019-02-06T19:51:59.626Z,8.10
2019-02-06T19:53:34.897Z,8.20
2019-02-06T19:55:11.718Z,8.20
2019-02-06T19:56:47.515Z,8.20
2019-02-06T19:58:22.566Z,8.20
2019-02-06T20:00:33.491Z,8.20
2019-02-06T20:02:09.638Z,8.30
2019-02-06T20:03:45.135Z,8.30
2019-02-06T20:05:20.657Z,8.30
2019-02-06T20:06:56.452Z,8.30
2019-02-06T20:08:32.142Z,8.40
2019-02-06T20:10:10.177Z,8.20
2019-02-06T20:11:46.019Z,8.20
2019-02-06T20:13:21.569Z,8.20
2019-02-06T20:14:56.855Z,8.30
2019-02-06T20:16:32.405Z,8.30
2019-02-06T20:18:07.839Z,8.20
2019-02-06T20:19:43.378Z,8.30
2019-02-06T20:21:18.685Z,8.10
2019-02-06T20:22:54.174Z,8.10
2019-02-06T20:24:29.933Z,8.20
2019-02-06T20:26:04.654Z,8.20
2019-02-06T20:27:40.237Z,8.20
2019-02-06T20:29:15.313Z,8.20
2019-02-06T20:30:51.440Z,8.20
2019-02-06T20:32:26.990Z,8.10
2019-02-06T20:34:02.415Z,8.20
2019-02-06T20:35:37.232Z,8.10
2019-02-06T20:37:12.736Z,8.10
2019-02-06T20:38:48.433Z,8.10
2019-02-06T20:40:26.210Z,8.10
2019-02-06T20:42:01.339Z,8.10
2019-02-06T20:43:36.569Z,8.10
2019-02-06T20:45:12.405Z,8.00
2019-02-06T20:46:47.648Z,8.10
2019-02-06T20:48:23.079Z,8.10
2019-02-06T20:49:58.767Z,8.10
2019-02-06T20:51:33.842Z,8.10
2019-02-06T20:53:08.910Z,8.10
2019-02-06T20:54:44.457Z,8.10
2019-02-06T20:56:19.499Z,8.10
2019-02-06T20:57:54.709Z,8.10
2019-02-06T20:59:30.486Z,8.20
2019-02-06T21:01:05.714Z,8.00
2019-02-06T21:02:41.646Z,8.00
2019-02-06T21:04:16.606Z,8.10
2019-02-06T21:05:51.459Z,8.10
2019-02-06T21:07:26.085Z,8.10
2019-02-06T21:09:00.702Z,8.10
2019-02-06T21:10:37.274Z,8.10
2019-02-06T21:12:11.866Z,8.10
2019-02-06T21:13:46.522Z,8.10
2019-02-06T21:15:21.146Z,8.20
2019-02-06T21:16:55.761Z,8.20
2019-02-06T21:18:30.381Z,8.20
2019-02-06T21:20:06.814Z,8.20
2019-02-06T21:21:41.413Z,8.10
2019-02-06T21:23:16.225Z,8.20
2019-02-06T21:24:50.860Z,8.20
2019-02-06T21:26:25.540Z,8.20
2019-02-06T21:28:00.225Z,8.10
2019-02-06T21:29:34.949Z,8.10
2019-02-06T21:31:09.672Z,8.10
2019-02-06T21:32:44.397Z,8.20
2019-02-06T21:34:18.969Z,8.20
2019-02-06T21:35:53.890Z,8.20
2019-02-06T21:37:28.533Z,8.20
2019-02-06T21:39:04.597Z,8.10
2019-02-06T21:40:40.397Z,8.20
2019-02-06T21:42:15.054Z,8.10
2019-02-06T21:43:49.663Z,8.10
2019-02-06T21:45:24.270Z,8.00
2019-02-06T21:46:58.877Z,8.10
2019-02-06T21:48:33.858Z,8.10
2019-02-06T21:50:10.498Z,8.10
2019-02-06T21:51:45.143Z,8.00
2019-02-06T21:53:19.799Z,8.00
2019-02-06T21:54:54.406Z,8.00
2019-02-06T21:56:29.021Z,7.90
2019-02-06T21:58:03.671Z,7.90
2019-02-06T21:59:38.370Z,7.90
2019-02-06T22:01:13.282Z,7.90
2019-02-06T22:02:47.898Z,7.90